Lorena, Texas
Current Conditions -  °F | °C
As of 5:15 AM on Tuesday 21 Oct 2014 (Local Time) from KPWG Reporting Station
Clear Clear  
Wind Chill: 55°   Ceiling: Unl
Heat Index: 55°   Visibility: 8mi
Dew Point: 50°   Wind: 0mph
Humidity: 82%   Direction: NA
Pressure: 30.07"   Gusts: NA
Location:  31.39°N, 97.22°W
Report Text: KPWG 211015Z AUTO 00000KT 8SM CLR 13/10 A3007 RMK AO1
Loading
Personal Weather Stations






























Interactive Weather Map
Tropical Storm Tracking
New forecast layout! Learn more

10-Day Weather Forecast

Advertisements
Track Severe Weather on mobile